PAIG

Details ICAO PAIG (IGG)
Name IGIUGIG
Region USA (Alaska)
Timezone America/Anchorage (UTC-8.0)
Plans Departing 4
Arriving 3
Stats Elevation 90 ft / 27 m (AMSL)
Location 59.324041° -155.901772°
Runways 1
Magnetic Variation 13.694° E
Sunrise 2018-05-22 13:36:47 UTC / 2018-05-22 05:36:47 Local
Sunset 2018-05-23 07:06:41 UTC / 2018-05-22 23:06:41 Local
Advertisement - Login to hide

Runways

ID Width Length Bearing (true) Bearing (mag) Surface Threshold Offset Overrun Length
05 75 ft / 23 m 2,990 ft / 911 m 71.94° 58.25° Gravel 0 ft / 0 m 0 ft / 0 m
23 75 ft / 23 m 2,990 ft / 911 m 251.96° 238.27° Gravel 0 ft / 0 m 0 ft / 0 m

Map

Weather


0- 5 10 15 20 25 30 35+ Temperature / ° C

Clouds and Precipitation
Forecast for 2018-05-23 06:00 UTC. Updated 4 hours ago

Ground ~20,000 ft ~40,000 ft Winds

METAR

PAIG 230903Z AUTO 17004KT 1SM -RA BR CLR 07/06 A2976 RMK AO2 VIS 1/2V5 RAB00 P0000 $

TAF

Not found

Frequencies

Recorded 119.92 MHz ASOS
Approach 118.80 MHz ANCHORAGE CNTR
Unicom 122.90 MHz CTAF UNIC
Warning: Do not use this data for real-world aviation or navigation. No guarantee of current accuracy is given.